createdAt,value
2023-05-25T00:02:24.478Z,99.90
2023-05-25T00:04:52.092Z,99.90
2023-05-25T00:07:19.081Z,99.90
2023-05-25T00:09:46.651Z,99.90
2023-05-25T00:12:14.177Z,99.90
2023-05-25T00:14:40.945Z,99.90
2023-05-25T00:17:10.049Z,99.90
2023-05-25T00:19:44.078Z,99.90
2023-05-25T00:22:11.360Z,99.90
2023-05-25T00:24:39.134Z,99.90
2023-05-25T00:27:07.198Z,99.90
2023-05-25T00:29:34.832Z,99.90
2023-05-25T00:32:01.701Z,99.90
2023-05-25T00:34:28.258Z,99.90
2023-05-25T00:36:54.890Z,99.90
2023-05-25T00:39:21.620Z,99.90
2023-05-25T00:41:49.180Z,99.90
2023-05-25T00:44:16.623Z,99.90
2023-05-25T00:46:50.981Z,99.90
2023-05-25T00:49:18.711Z,99.90
2023-05-25T00:51:46.711Z,99.90
2023-05-25T00:54:17.142Z,99.90
2023-05-25T00:56:51.627Z,99.90
2023-05-25T00:59:24.496Z,99.90
2023-05-25T01:01:53.940Z,99.90
2023-05-25T01:04:21.500Z,99.90
2023-05-25T01:06:48.532Z,99.90
2023-05-25T01:09:16.482Z,99.90
2023-05-25T01:11:44.189Z,99.90
2023-05-25T01:14:10.894Z,99.90
2023-05-25T01:16:37.755Z,99.90
2023-05-25T01:19:04.359Z,99.90
2023-05-25T01:21:42.194Z,99.90
2023-05-25T01:24:17.525Z,99.90
2023-05-25T01:26:48.837Z,99.90
2023-05-25T01:29:17.196Z,99.90
2023-05-25T01:31:44.929Z,99.90
2023-05-25T01:34:12.884Z,99.90
2023-05-25T01:36:39.434Z,99.90
2023-05-25T01:39:06.768Z,99.90
2023-05-25T01:41:33.350Z,99.90
2023-05-25T01:43:59.906Z,99.90
2023-05-25T01:46:39.430Z,99.90
2023-05-25T01:49:24.604Z,99.90
2023-05-25T01:51:55.845Z,99.90
2023-05-25T01:54:26.252Z,99.90
2023-05-25T01:56:54.482Z,99.90
2023-05-25T01:59:22.616Z,99.90
2023-05-25T02:01:53.128Z,99.90
2023-05-25T02:04:22.040Z,99.90
2023-05-25T02:06:48.941Z,99.90
2023-05-25T02:09:15.474Z,99.90
2023-05-25T02:11:42.098Z,99.90
2023-05-25T02:14:09.094Z,99.90
2023-05-25T02:16:35.693Z,99.90
2023-05-25T02:19:02.332Z,99.90
2023-05-25T02:21:29.115Z,99.90
2023-05-25T02:23:57.910Z,99.90
2023-05-25T02:26:24.521Z,99.90
2023-05-25T02:28:51.698Z,99.90
2023-05-25T02:31:18.463Z,99.90
2023-05-25T02:33:45.071Z,99.90
2023-05-25T02:36:11.665Z,99.90
2023-05-25T02:38:38.275Z,99.90
2023-05-25T02:41:05.019Z,99.90
2023-05-25T02:43:32.565Z,99.90
2023-05-25T02:45:59.147Z,99.90
2023-05-25T02:48:25.742Z,99.90
2023-05-25T02:50:52.276Z,99.90
2023-05-25T02:53:18.820Z,99.90
2023-05-25T02:55:52.426Z,99.90
2023-05-25T02:58:18.955Z,99.90
2023-05-25T03:00:46.810Z,99.90
2023-05-25T03:03:13.573Z,99.90
2023-05-25T03:05:40.470Z,99.90
2023-05-25T03:08:06.962Z,99.90
2023-05-25T03:10:33.523Z,99.90
2023-05-25T03:13:00.126Z,99.90
2023-05-25T03:15:27.221Z,99.90
2023-05-25T03:17:56.699Z,99.90
2023-05-25T03:20:24.808Z,99.90
2023-05-25T03:22:51.460Z,99.90
2023-05-25T03:25:18.043Z,99.90
2023-05-25T03:27:44.565Z,99.90
2023-05-25T03:30:11.681Z,99.90
2023-05-25T03:32:38.279Z,99.90
2023-05-25T03:35:05.351Z,99.90
2023-05-25T03:37:32.413Z,99.90
2023-05-25T03:39:59.024Z,99.90
2023-05-25T03:42:25.656Z,99.90
2023-05-25T03:44:52.220Z,99.90
2023-05-25T03:47:18.745Z,99.90
2023-05-25T03:49:45.320Z,99.90
2023-05-25T03:52:11.847Z,99.90
2023-05-25T03:54:38.399Z,99.90
2023-05-25T03:57:05.036Z,99.90
2023-05-25T03:59:31.586Z,99.90
2023-05-25T04:01:58.389Z,99.90
2023-05-25T04:04:24.908Z,99.90
2023-05-25T04:06:51.839Z,99.90
2023-05-25T04:09:18.533Z,99.90
2023-05-25T04:11:47.928Z,99.90
2023-05-25T04:14:14.425Z,99.90
2023-05-25T04:16:45.035Z,99.90
2023-05-25T04:19:11.909Z,99.90
2023-05-25T04:21:38.495Z,99.90
2023-05-25T04:24:06.504Z,99.90
2023-05-25T04:26:33.570Z,99.90
2023-05-25T04:29:01.860Z,99.90
2023-05-25T04:31:28.458Z,99.90
2023-05-25T04:33:56.136Z,99.90
2023-05-25T04:36:22.975Z,99.90
2023-05-25T04:38:52.069Z,99.90
2023-05-25T04:41:18.903Z,99.90
2023-05-25T04:44:00.963Z,99.90
2023-05-25T04:46:32.271Z,99.90
2023-05-25T04:48:58.940Z,99.90
2023-05-25T04:51:25.825Z,99.90
2023-05-25T04:53:52.360Z,99.90
2023-05-25T04:56:18.946Z,99.90
2023-05-25T04:58:45.580Z,99.90
2023-05-25T05:01:12.214Z,99.90
2023-05-25T05:03:38.880Z,99.90
2023-05-25T05:06:05.519Z,99.90
2023-05-25T05:08:32.102Z,99.90
2023-05-25T05:10:58.703Z,99.90
2023-05-25T05:13:25.297Z,99.90
2023-05-25T05:15:51.841Z,99.90
2023-05-25T05:18:18.495Z,99.90
2023-05-25T05:20:45.184Z,99.90
2023-05-25T05:23:12.089Z,99.90
2023-05-25T05:25:38.865Z,99.90
2023-05-25T05:28:05.992Z,99.90
2023-05-25T05:30:32.550Z,99.90
2023-05-25T05:32:59.150Z,99.90
2023-05-25T05:35:25.809Z,99.90
2023-05-25T05:37:52.370Z,99.90
2023-05-25T05:40:19.135Z,99.90
2023-05-25T05:42:45.689Z,99.90
2023-05-25T05:45:12.302Z,99.90
2023-05-25T05:47:38.894Z,99.90
2023-05-25T05:50:06.545Z,99.90
2023-05-25T05:52:33.160Z,99.90
2023-05-25T05:54:59.724Z,99.90
2023-05-25T05:57:26.430Z,99.90
2023-05-25T05:59:53.006Z,99.90
2023-05-25T06:02:19.736Z,99.90
2023-05-25T06:04:46.383Z,99.90
2023-05-25T06:07:12.960Z,99.90
2023-05-25T06:09:39.582Z,99.90
2023-05-25T06:12:06.424Z,99.90
2023-05-25T06:14:33.024Z,99.90
2023-05-25T06:16:59.670Z,99.90
2023-05-25T06:19:26.352Z,99.90
2023-05-25T06:21:52.952Z,99.90
2023-05-25T06:24:19.581Z,99.90
2023-05-25T06:26:46.148Z,99.90
2023-05-25T06:29:15.410Z,99.90
2023-05-25T06:31:43.412Z,99.90
2023-05-25T06:34:10.051Z,99.90
2023-05-25T06:36:37.221Z,99.90
2023-05-25T06:39:03.876Z,99.90
2023-05-25T06:41:30.887Z,99.90
2023-05-25T06:43:57.471Z,99.90
2023-05-25T06:46:24.109Z,99.90
2023-05-25T06:48:50.845Z,99.90
2023-05-25T06:51:17.497Z,99.90
2023-05-25T06:53:44.471Z,99.90
2023-05-25T06:56:11.078Z,99.90
2023-05-25T06:58:37.698Z,99.90
2023-05-25T07:01:04.335Z,99.90
2023-05-25T07:03:32.558Z,99.90
2023-05-25T07:05:59.789Z,99.90
2023-05-25T07:08:26.340Z,99.90
2023-05-25T07:10:52.875Z,99.90
2023-05-25T07:13:19.436Z,99.90
2023-05-25T07:15:47.231Z,99.90
2023-05-25T07:18:14.428Z,99.90
2023-05-25T07:20:44.481Z,99.90
2023-05-25T07:23:11.529Z,99.90
2023-05-25T07:25:38.313Z,99.90
2023-05-25T07:28:05.571Z,99.90
2023-05-25T07:30:32.316Z,99.90
2023-05-25T07:32:59.828Z,99.90
2023-05-25T07:35:26.572Z,99.90
2023-05-25T07:38:00.906Z,99.90
2023-05-25T07:40:28.217Z,99.90
2023-05-25T07:42:54.851Z,99.90
2023-05-25T07:45:21.949Z,99.90
2023-05-25T07:47:48.871Z,99.90
2023-05-25T07:50:15.481Z,99.90
2023-05-25T07:52:42.321Z,99.90
2023-05-25T07:55:09.300Z,99.90
2023-05-25T07:57:36.059Z,99.90
2023-05-25T08:00:03.206Z,99.90
2023-05-25T08:02:29.842Z,99.90
2023-05-25T08:04:56.474Z,99.90
2023-05-25T08:07:24.883Z,99.90
2023-05-25T08:09:51.446Z,99.90
2023-05-25T08:14:47.530Z,99.90
2023-05-25T08:17:14.291Z,99.90
2023-05-25T08:19:41.348Z,99.90
2023-05-25T08:22:08.010Z,99.90
2023-05-25T08:24:34.606Z,99.90
2023-05-25T08:27:01.878Z,99.90
2023-05-25T08:29:28.444Z,99.90
2023-05-25T08:31:55.187Z,99.90
2023-05-25T08:34:21.786Z,99.90
2023-05-25T08:36:48.696Z,99.90
2023-05-25T08:39:16.538Z,99.90
2023-05-25T08:41:44.187Z,99.90
2023-05-25T08:44:11.085Z,99.90
2023-05-25T08:46:37.689Z,99.90
2023-05-25T08:49:08.644Z,99.90
2023-05-25T08:51:37.150Z,99.90
2023-05-25T08:54:06.803Z,99.90
2023-05-25T08:56:36.885Z,99.90
2023-05-25T08:59:09.283Z,99.90
2023-05-25T09:01:39.233Z,99.90
2023-05-25T09:04:06.208Z,99.90
2023-05-25T09:06:36.689Z,99.90
2023-05-25T09:09:06.253Z,99.90
2023-05-25T09:11:39.610Z,99.90
2023-05-25T09:14:08.246Z,99.90
2023-05-25T09:16:36.958Z,99.90
2023-05-25T09:19:03.586Z,99.90
2023-05-25T09:21:30.151Z,99.90
2023-05-25T09:23:56.851Z,99.90
2023-05-25T09:26:23.508Z,99.90
2023-05-25T09:28:50.043Z,99.90
2023-05-25T09:31:16.825Z,99.90
2023-05-25T09:33:44.727Z,99.90
2023-05-25T09:36:15.201Z,95.80
2023-05-25T09:38:42.251Z,92.00
2023-05-25T09:41:09.572Z,93.10
2023-05-25T09:43:44.621Z,92.70
2023-05-25T09:46:16.396Z,94.40
2023-05-25T09:48:43.544Z,96.90
2023-05-25T09:51:11.385Z,98.10
2023-05-25T09:53:38.050Z,97.40
2023-05-25T09:56:05.372Z,95.70
2023-05-25T09:58:31.947Z,92.70
2023-05-25T10:00:58.889Z,90.40
2023-05-25T10:03:25.677Z,87.40
2023-05-25T10:05:53.452Z,86.90
2023-05-25T10:08:21.574Z,81.40
2023-05-25T10:10:49.884Z,76.60
2023-05-25T10:13:20.380Z,74.80
2023-05-25T10:15:47.805Z,73.20
2023-05-25T10:18:15.636Z,84.20
2023-05-25T10:20:44.005Z,90.40
2023-05-25T10:23:11.228Z,92.10
2023-05-25T10:25:38.817Z,93.60
2023-05-25T10:28:14.439Z,92.50
2023-05-25T10:30:41.650Z,91.50
2023-05-25T10:33:09.113Z,84.90
2023-05-25T10:35:46.798Z,77.00
2023-05-25T10:38:26.323Z,75.00
2023-05-25T10:40:54.208Z,75.00
2023-05-25T10:43:21.022Z,79.60
2023-05-25T10:45:48.172Z,81.20
2023-05-25T10:48:15.604Z,76.70
2023-05-25T10:50:42.360Z,81.10
2023-05-25T10:53:12.568Z,82.90
2023-05-25T10:55:51.870Z,76.90
2023-05-25T10:58:18.979Z,71.80
2023-05-25T11:01:04.889Z,69.80
2023-05-25T11:03:44.053Z,68.60
2023-05-25T11:06:11.453Z,69.10
2023-05-25T11:08:50.863Z,69.60
2023-05-25T11:11:17.439Z,69.20
2023-05-25T11:13:45.042Z,66.70
2023-05-25T11:16:17.431Z,68.30
2023-05-25T11:18:51.863Z,68.40
2023-05-25T11:21:22.641Z,70.60
2023-05-25T11:23:55.901Z,70.40
2023-05-25T11:26:33.110Z,74.20
2023-05-25T11:29:00.329Z,73.40
2023-05-25T11:31:31.582Z,72.10
2023-05-25T11:34:00.831Z,69.30
2023-05-25T11:36:34.060Z,65.80
2023-05-25T11:39:06.370Z,65.20
2023-05-25T11:41:36.465Z,62.50
2023-05-25T11:44:04.318Z,62.00
2023-05-25T11:46:33.300Z,63.50
2023-05-25T11:49:00.748Z,65.00
2023-05-25T11:51:28.820Z,65.80
2023-05-25T11:53:55.733Z,67.50
2023-05-25T11:56:34.242Z,65.70
2023-05-25T11:59:02.426Z,64.80
2023-05-25T12:01:31.851Z,63.30
2023-05-25T12:03:58.893Z,65.90
2023-05-25T12:06:33.909Z,65.70
2023-05-25T12:09:01.603Z,66.00
2023-05-25T12:11:29.124Z,65.90
2023-05-25T12:13:55.986Z,68.20
2023-05-25T12:16:23.056Z,68.90
2023-05-25T12:18:50.180Z,68.90
2023-05-25T12:21:17.064Z,67.40
2023-05-25T12:23:43.714Z,65.00
2023-05-25T12:26:13.918Z,65.20
2023-05-25T12:28:41.015Z,67.30
2023-05-25T12:31:21.522Z,71.80
2023-05-25T12:34:01.939Z,70.10
2023-05-25T12:36:38.394Z,71.60
2023-05-25T12:39:06.001Z,71.30
2023-05-25T12:41:41.744Z,73.40
2023-05-25T12:44:16.140Z,78.70
2023-05-25T12:46:42.814Z,80.50
2023-05-25T12:49:29.235Z,77.80
2023-05-25T12:51:56.438Z,76.90
2023-05-25T12:54:38.067Z,79.00
2023-05-25T12:57:08.187Z,78.30
2023-05-25T12:59:35.371Z,78.40
2023-05-25T13:02:02.798Z,77.40
2023-05-25T13:04:29.442Z,77.50
2023-05-25T13:06:56.073Z,76.30
2023-05-25T13:09:28.908Z,84.00
2023-05-25T13:11:55.903Z,84.00
2023-05-25T13:14:23.150Z,86.80
2023-05-25T13:16:50.189Z,83.00
2023-05-25T13:19:17.460Z,79.10
2023-05-25T13:21:44.676Z,78.20
2023-05-25T13:24:11.484Z,77.90
2023-05-25T13:26:38.551Z,76.40
2023-05-25T13:29:05.152Z,75.40
2023-05-25T13:31:31.732Z,73.40
2023-05-25T13:33:58.950Z,74.50
2023-05-25T13:36:25.632Z,77.90
2023-05-25T13:38:52.216Z,79.50
2023-05-25T13:41:18.875Z,79.70
2023-05-25T13:43:45.610Z,78.20
2023-05-25T13:46:25.862Z,78.00
2023-05-25T13:48:52.867Z,81.20
2023-05-25T13:51:19.669Z,76.40
2023-05-25T13:53:48.162Z,76.30
2023-05-25T13:56:14.881Z,75.30
2023-05-25T13:58:41.836Z,74.90
2023-05-25T14:01:09.394Z,77.10
2023-05-25T14:03:37.384Z,76.10
2023-05-25T14:06:04.230Z,73.30
2023-05-25T14:08:31.219Z,70.80
2023-05-25T14:10:57.846Z,72.20
2023-05-25T14:13:24.448Z,67.60
2023-05-25T14:15:51.284Z,70.10
2023-05-25T14:18:17.954Z,70.90
2023-05-25T14:20:44.832Z,69.30
2023-05-25T14:23:15.780Z,70.30
2023-05-25T14:25:44.452Z,67.50
2023-05-25T14:28:11.237Z,69.70
2023-05-25T14:30:37.984Z,68.70
2023-05-25T14:33:04.633Z,67.70
2023-05-25T14:35:31.288Z,66.80
2023-05-25T14:37:57.836Z,68.30
2023-05-25T14:40:24.413Z,67.90
2023-05-25T14:42:50.975Z,65.80
2023-05-25T14:45:18.213Z,66.60
2023-05-25T14:47:44.769Z,66.20
2023-05-25T14:50:11.431Z,66.80
2023-05-25T14:52:38.031Z,65.60
2023-05-25T14:55:04.747Z,63.80
2023-05-25T14:57:31.400Z,65.10
2023-05-25T14:59:57.943Z,66.90
2023-05-25T15:02:24.665Z,66.40
2023-05-25T15:04:51.350Z,65.70
2023-05-25T15:07:17.985Z,63.70
2023-05-25T15:09:45.245Z,64.00
2023-05-25T15:12:11.971Z,61.80
2023-05-25T15:14:40.667Z,63.80
2023-05-25T15:17:07.203Z,64.20
2023-05-25T15:19:33.778Z,64.70
2023-05-25T15:22:00.394Z,63.20
2023-05-25T15:24:27.031Z,63.50
2023-05-25T15:26:53.583Z,64.80
2023-05-25T15:29:20.378Z,66.20
2023-05-25T15:31:49.917Z,65.30
2023-05-25T15:34:16.554Z,64.60
2023-05-25T15:36:43.120Z,63.50
2023-05-25T15:39:11.448Z,64.20
2023-05-25T15:41:37.981Z,61.10
2023-05-25T15:44:08.127Z,61.70
2023-05-25T15:46:35.856Z,64.90
2023-05-25T15:49:02.409Z,62.40
2023-05-25T15:51:28.971Z,64.40
2023-05-25T15:53:55.577Z,65.30
2023-05-25T15:56:22.956Z,65.30
2023-05-25T15:58:49.591Z,67.30
2023-05-25T16:01:16.404Z,67.50
2023-05-25T16:03:43.254Z,66.40
2023-05-25T16:06:10.217Z,65.50
2023-05-25T16:08:40.091Z,64.00
2023-05-25T16:11:06.722Z,65.30
2023-05-25T16:13:33.295Z,65.20
2023-05-25T16:15:59.854Z,64.30
2023-05-25T16:18:26.525Z,64.30
2023-05-25T16:20:56.293Z,64.30
2023-05-25T16:23:23.412Z,66.30
2023-05-25T16:25:50.309Z,65.40
2023-05-25T16:28:20.457Z,64.20
2023-05-25T16:30:47.291Z,63.50
2023-05-25T16:33:14.001Z,63.20
2023-05-25T16:35:40.657Z,63.50
2023-05-25T16:38:07.180Z,64.50
2023-05-25T16:40:35.870Z,65.20
2023-05-25T16:43:02.464Z,63.80
2023-05-25T16:45:29.010Z,63.70
2023-05-25T16:47:55.660Z,64.90
2023-05-25T16:50:22.273Z,63.90
2023-05-25T16:52:48.829Z,65.70
2023-05-25T16:55:16.105Z,65.20
2023-05-25T16:57:42.820Z,64.70
2023-05-25T17:00:09.996Z,63.00
2023-05-25T17:02:36.712Z,66.10
2023-05-25T17:05:06.416Z,66.70
2023-05-25T17:07:33.478Z,66.00
2023-05-25T17:10:00.249Z,68.80
2023-05-25T17:12:26.897Z,68.80
2023-05-25T17:14:53.512Z,67.80
2023-05-25T17:17:20.131Z,68.90
2023-05-25T17:19:46.655Z,69.80
2023-05-25T17:22:13.210Z,73.00
2023-05-25T17:24:39.745Z,72.70
2023-05-25T17:27:06.306Z,74.50
2023-05-25T17:29:33.127Z,75.90
2023-05-25T17:31:59.798Z,73.30
2023-05-25T17:34:26.412Z,72.60
2023-05-25T17:36:52.986Z,73.00
2023-05-25T17:39:19.635Z,73.20
2023-05-25T17:41:46.147Z,73.40
2023-05-25T17:44:12.719Z,73.80
2023-05-25T17:46:39.275Z,74.70
2023-05-25T17:49:05.961Z,75.90
2023-05-25T17:51:32.565Z,76.00
2023-05-25T17:53:59.149Z,75.50
2023-05-25T17:56:26.284Z,75.20
2023-05-25T17:58:52.857Z,76.80
2023-05-25T18:01:19.513Z,75.80
2023-05-25T18:03:46.400Z,76.50
2023-05-25T18:06:13.216Z,77.80
2023-05-25T18:08:39.793Z,79.70
2023-05-25T18:11:06.418Z,81.60
2023-05-25T18:13:32.966Z,81.30
2023-05-25T18:15:59.658Z,82.30
2023-05-25T18:18:26.399Z,81.50
2023-05-25T18:20:52.951Z,81.30
2023-05-25T18:23:19.530Z,81.90
2023-05-25T18:25:46.392Z,82.90
2023-05-25T18:28:14.906Z,86.10
2023-05-25T18:30:45.084Z,87.00
2023-05-25T18:33:11.792Z,87.70
2023-05-25T18:35:38.395Z,87.00
2023-05-25T18:38:05.335Z,86.60
2023-05-25T18:40:32.105Z,86.20
2023-05-25T18:42:58.679Z,85.60
2023-05-25T18:45:25.916Z,87.50
2023-05-25T18:47:52.657Z,89.00
2023-05-25T18:50:19.964Z,90.20
2023-05-25T18:52:50.544Z,90.90
2023-05-25T18:55:17.582Z,91.80
2023-05-25T18:57:44.437Z,92.50
2023-05-25T19:00:11.343Z,93.00
2023-05-25T19:02:38.673Z,93.90
2023-05-25T19:05:05.769Z,93.30
2023-05-25T19:07:37.649Z,94.20
2023-05-25T19:10:08.693Z,94.20
2023-05-25T19:12:35.702Z,95.00
2023-05-25T19:15:02.927Z,95.50
2023-05-25T19:17:29.542Z,95.80
2023-05-25T19:19:56.099Z,96.00
2023-05-25T19:22:22.709Z,96.20
2023-05-25T19:24:57.474Z,96.60
2023-05-25T19:27:27.065Z,97.20
2023-05-25T19:29:53.631Z,97.40
2023-05-25T19:32:29.618Z,97.90
2023-05-25T19:34:56.337Z,98.30
2023-05-25T19:37:22.935Z,98.80
2023-05-25T19:39:49.464Z,98.90
2023-05-25T19:42:15.974Z,99.50
2023-05-25T19:44:42.557Z,99.90
2023-05-25T19:47:09.091Z,99.90
2023-05-25T19:49:35.798Z,99.90
2023-05-25T19:52:02.380Z,99.90
2023-05-25T19:54:28.942Z,99.90
2023-05-25T19:56:55.547Z,99.90
2023-05-25T19:59:22.152Z,99.90
2023-05-25T20:01:48.760Z,99.90
2023-05-25T20:04:15.525Z,99.90
2023-05-25T20:06:42.107Z,99.90
2023-05-25T20:09:12.340Z,99.90
2023-05-25T20:11:38.895Z,99.90
2023-05-25T20:14:06.650Z,99.90
2023-05-25T20:16:33.341Z,99.90
2023-05-25T20:18:59.965Z,99.90
2023-05-25T20:21:26.528Z,99.90
2023-05-25T20:23:53.102Z,99.90
2023-05-25T20:26:19.764Z,99.90
2023-05-25T20:28:46.376Z,99.90
2023-05-25T20:31:12.996Z,99.90
2023-05-25T20:33:39.557Z,99.90
2023-05-25T20:36:06.181Z,99.90
2023-05-25T20:38:32.714Z,99.90
2023-05-25T20:40:59.322Z,99.90
2023-05-25T20:43:25.868Z,99.90
2023-05-25T20:45:52.499Z,99.90
2023-05-25T20:48:19.052Z,99.90
2023-05-25T20:50:45.656Z,99.90
2023-05-25T20:53:12.292Z,99.90
2023-05-25T20:55:38.854Z,99.90
2023-05-25T20:58:05.443Z,99.90
2023-05-25T21:00:32.056Z,99.90
2023-05-25T21:02:58.687Z,99.90
2023-05-25T21:05:25.365Z,99.90
2023-05-25T21:07:51.887Z,99.90
2023-05-25T21:10:18.449Z,99.90
2023-05-25T21:12:45.014Z,99.90
2023-05-25T21:15:11.693Z,99.90
2023-05-25T21:17:38.239Z,99.90
2023-05-25T21:20:05.116Z,99.90
2023-05-25T21:22:31.669Z,99.90
2023-05-25T21:24:58.291Z,99.90
2023-05-25T21:27:24.852Z,99.90
2023-05-25T21:29:51.766Z,99.90
2023-05-25T21:32:18.292Z,99.90
2023-05-25T21:34:44.893Z,99.90
2023-05-25T21:37:11.472Z,99.90
2023-05-25T21:39:38.215Z,99.90
2023-05-25T21:42:05.029Z,99.90
2023-05-25T21:44:31.556Z,99.90
2023-05-25T21:46:58.066Z,99.90
2023-05-25T21:49:24.623Z,99.90
2023-05-25T21:51:51.164Z,99.90
2023-05-25T21:54:17.763Z,99.90
2023-05-25T21:56:44.335Z,99.90
2023-05-25T22:02:11.423Z,99.90
2023-05-25T22:04:38.034Z,99.90
2023-05-25T22:07:04.629Z,99.90
2023-05-25T22:09:31.782Z,99.90
2023-05-25T22:12:02.208Z,99.90
2023-05-25T22:14:28.742Z,99.90
2023-05-25T22:16:55.394Z,99.90
2023-05-25T22:19:22.050Z,99.90
2023-05-25T22:21:48.562Z,99.90
2023-05-25T22:24:15.100Z,99.90
2023-05-25T22:26:41.628Z,99.90
2023-05-25T22:29:08.187Z,99.90
2023-05-25T22:31:34.824Z,99.90
2023-05-25T22:34:01.403Z,99.90
2023-05-25T22:36:27.935Z,99.90
2023-05-25T22:38:54.500Z,99.90
2023-05-25T22:41:21.323Z,99.90
2023-05-25T22:43:47.969Z,99.90
2023-05-25T22:46:14.534Z,99.90
2023-05-25T22:48:43.314Z,99.90
2023-05-25T22:51:09.936Z,99.90
2023-05-25T22:53:36.520Z,99.90
2023-05-25T22:56:03.092Z,99.90
2023-05-25T22:58:29.687Z,99.90
2023-05-25T23:00:57.117Z,99.90
2023-05-25T23:03:23.724Z,99.90
2023-05-25T23:05:50.323Z,99.90
2023-05-25T23:08:16.878Z,99.90
2023-05-25T23:10:43.459Z,99.90
2023-05-25T23:13:10.031Z,99.90
2023-05-25T23:15:39.621Z,99.90
2023-05-25T23:18:06.350Z,99.90
2023-05-25T23:20:33.927Z,99.90
2023-05-25T23:23:00.814Z,99.90
2023-05-25T23:25:27.338Z,99.90
2023-05-25T23:27:53.892Z,99.90
2023-05-25T23:30:20.482Z,99.90
2023-05-25T23:32:47.102Z,99.90
2023-05-25T23:35:13.711Z,99.90
2023-05-25T23:37:40.301Z,99.90
2023-05-25T23:40:07.809Z,99.90
2023-05-25T23:42:37.585Z,99.90
2023-05-25T23:45:04.349Z,99.90
2023-05-25T23:47:30.891Z,99.90
2023-05-25T23:49:58.231Z,99.90
2023-05-25T23:52:24.878Z,99.90
2023-05-25T23:54:51.374Z,99.90
2023-05-25T23:57:17.988Z,99.90
2023-05-25T23:59:52.340Z,99.90
